• Join FlightAware (Why Join?)
  • Login
  • US Flag 
10:54AM EDT


 

Airport Tracker/Info


-or-


 

Live Flight TrackerFlight Track Log ✈ EVA32 ✈ 05-May-2012 ✈ RCTP / TPE - KJFK

Flight Track Log - Related Links

Times and Time Zones

All times are in EDT time to prevent confusion due to time zone crossing. See the EVA32 flight status page for this flight to view local times or setup timezone preferences in your user account.

Time Position Orientation Groundspeed Altitude Reporting Facility
EDT Latitude Longitude Course Direction KTS MPH feet Rate Location/Type
03:34PM 51.0667 -148.1833 88° East 540 621 34,000  Level Oakland Oceanic (ODAPS)
04:01PM 51.0667 -141.9000 92° East 534 615 34,000  Level Oakland Oceanic (ODAPS)
04:09PM 51.0000 -140.0000 101° East 529 609 34,000  Level Oakland Oceanic (ODAPS)
04:28PM 50.4167 -135.8667 105° East 530 610 34,000  Level Oakland Oceanic (ODAPS)
04:36PM 50.0667 -133.8833 95° East 620 713 34,000  Level Vancouver Center
04:41PM 50.0000 -132.7667 96° East 530 610 34,000 60 Level Vancouver Center
04:42PM 49.9833 -132.5333 103° East 540 621 34,500 480 Climbing Vancouver Center
04:43PM 49.9500 -132.3167 102° East 550 633 35,000 240 Climbing Vancouver Center
04:44PM 49.9167 -132.0833 103° East 540 621 35,000  Level Vancouver Center
04:45PM 49.8833 -131.8667 103° East 540 621 35,000  Level Vancouver Center
04:46PM 49.8500 -131.6500 102° East 540 621 35,000  Level Vancouver Center
04:47PM 49.8167 -131.4167 103° East 540 621 35,000  Level Vancouver Center
04:48PM 49.7833 -131.2000 108° East 540 621 35,000  Level Vancouver Center
04:49PM 49.7333 -130.9667 97° East 540 621 35,000  Level Vancouver Center
04:50PM 49.7167 -130.7500 102° East 540 621 35,000  Level Vancouver Center
04:51PM 49.6833 -130.5167 110° East 530 610 35,000  Level Vancouver Center
04:52PM 49.6333 -130.3000 103° East 530 610 35,000  Level Vancouver Center
04:53PM 49.6000 -130.0833 102° East 540 621 35,000  Level Vancouver Center
04:54PM 49.5667 -129.8500 103° East 540 621 35,000  Level Vancouver Center
04:55PM 49.5333 -129.6333 108° East 530 610 35,000  Level Vancouver Center
04:56PM 49.4833 -129.4000 104° East 540 621 35,000  Level Vancouver Center
04:57PM 49.4500 -129.2000 107° East 530 610 35,000  Level Vancouver Center
04:58PM 49.4000 -128.9500 104° East 540 621 35,000  Level Vancouver Center
04:59PM 49.3667 -128.7500 102° East 530 610 35,000  Level Vancouver Center
05:00PM 49.3333 -128.5167 109° East 530 610 35,000  Level Vancouver Center
05:01PM 49.2833 -128.3000 104° East 530 610 35,000  Level Vancouver Center
05:02PM 49.2500 -128.1000 108° East 530 610 35,000  Level Vancouver Center
05:03PM 49.2000 -127.8667 103° East 530 610 35,000  Level Vancouver Center
05:04PM 49.1667 -127.6500 104° East 530 610 35,000  Level Vancouver Center
05:05PM 49.1333 -127.4500 109° East 530 610 35,000  Level Vancouver Center
05:06PM 49.0833 -127.2333 103° East 530 610 35,000  Level Vancouver Center
05:07PM 49.0500 -127.0167 109° East 530 610 35,000  Level Vancouver Center
05:08PM 49.0000 -126.8000 108° East 530 610 35,000  Level Vancouver Center
05:09PM 48.9500 -126.5667 104° East 530 610 35,000  Level Vancouver Center
05:10PM 48.9167 -126.3667 108° East 530 610 35,000  Level Vancouver Center
05:11PM 48.8667 -126.1333 111° Southeast 530 610 35,000  Level Vancouver Center
05:12PM 48.8167 -125.9333 109° East 530 610 35,000  Level Vancouver Center
05:13PM 48.7667 -125.7167 104° East 530 610 35,000  Level Vancouver Center
05:14PM 48.7333 -125.5167 108° East 530 610 35,000  Level Vancouver Center
05:15PM 48.6833 -125.2833 111° Southeast 530 610 35,000  Level Vancouver Center
05:16PM 48.6333 -125.0833 109° East 530 610 35,000  Level Vancouver Center
05:17PM 48.5833 -124.8667 103° East 530 610 35,000  Level Vancouver Center
05:18PM 48.5500 -124.6500 103° East 530 610 35,000  Level Vancouver Center
05:19PM 48.5167 -124.4333 90° East 530 610 35,000  Level Vancouver Center
05:20PM 48.5167 -124.2333 90° East 510 587 35,000  Level Vancouver Center
05:21PM 48.5167 -124.0333 84° East 500 575 35,000  Level Vancouver Center
05:22PM 48.5333 -123.8000 90° East 500 575 35,000  Level Vancouver Center
05:23PM 48.5333 -123.6000 90° East 500 575 35,000  Level Vancouver Center
05:24PM 48.5333 -123.4000 84° East 500 575 35,000  Level Vancouver Center
05:25PM 48.5500 -123.1667 90° East 500 575 35,000  Level Vancouver Center
05:26PM 48.5500 -122.9667 83° East 500 575 35,000  Level Vancouver Center
05:27PM 48.5667 -122.7667 90° East 500 575 35,000  Level Vancouver Center
05:28PM 48.5667 -122.5333 90° East 500 575 35,000  Level Vancouver Center
05:29PM 48.5667 -122.3333 83° East 500 575 35,000  Level Vancouver Center
05:30PM 48.5833 -122.1333 96° East 500 575 35,000  Level Vancouver Center
05:31PM 48.5667 -121.9000 90° East 510 587 35,000  Level Vancouver Center
05:32PM 48.5667 -121.7000 83° East 510 587 35,000  Level Vancouver Center
05:33PM 48.5833 -121.4833 90° East 510 587 35,000  Level Vancouver Center
05:34PM 48.5833 -121.2833 96° East 510 587 35,000  Level Vancouver Center
05:35PM 48.5667 -121.0500 90° East 510 587 35,000  Level Vancouver Center
05:36PM 48.5667 -120.8500 83° East 510 587 35,000  Level Vancouver Center
05:37PM 48.5833 -120.6500 96° East 500 575 35,000  Level Vancouver Center
05:38PM 48.5667 -120.4167 83° East 500 575 35,000  Level Vancouver Center
05:39PM 48.5833 -120.2167 96° East 500 575 35,000  Level Vancouver Center
05:40PM 48.5667 -119.9833 90° East 510 587 35,000  Level Vancouver Center
05:41PM 48.5667 -119.7833 90° East 500 575 35,000  Level Vancouver Center
05:42PM 48.5667 -119.5833 90° East 500 575 35,000  Level Vancouver Center
05:43PM 48.5667 -119.3833 90° East 500 575 35,000  Level Vancouver Center
05:44PM 48.5667 -119.1667 97° East 500 575 35,000  Level Vancouver Center
05:45PM 48.5500 -118.9500 90° East 510 587 35,000  Level Vancouver Center
05:46PM 48.5500 -118.7333 90° East 510 587 35,000  Level Vancouver Center
05:47PM 48.5500 -118.5333 74° East 510 587 35,000 -120 Level Vancouver Center
05:48PM 48.5647 -118.4536 107° East 506 582 34,900  Descending Seattle Center
05:48PM 48.5333 -118.3000 55° Northeast 500 575 35,000  Climbing Vancouver Center
05:49PM 48.5600 -118.2419 92° East 505 581 34,900 -120 Descending Seattle Center
05:50PM 48.5558 -118.0322 92° East 502 578 34,900  Level Seattle Center
05:51PM 48.5503 -117.8239 93° East 499 574 35,000  Climbing Seattle Center
05:52PM 48.5428 -117.6172 92° East 496 571 35,000  Level Seattle Center
05:53PM 48.5375 -117.4097 93° East 495 570 35,000 -60 Level Seattle Center
05:54PM 48.5306 -117.2019 93° East 495 570 34,900  Descending Seattle Center
05:55PM 48.5239 -116.9928 93° East 497 572 35,000  Climbing Seattle Center
05:56PM 48.5150 -116.7414 93° East 499 574 35,000  Level Seattle Center
05:57PM 48.5072 -116.5308 93° East 501 577 35,000  Level Seattle Center
05:58PM 48.4986 -116.3225 94° East 500 575 35,000  Level Seattle Center
05:59PM 48.4897 -116.1142 93° East 498 573 35,000 -60 Level Seattle Center
06:00PM 48.4825 -115.9333 94° East 498 573 34,900  Descending Seattle Center
06:01PM 48.4711 -115.6828 94° East 499 574 35,000  Climbing Seattle Center
06:02PM 48.4617 -115.4750 94° East 499 574 34,900 -60 Descending Seattle Center
06:03PM 48.4514 -115.2658 94° East 500 575 34,900  Level Seattle Center
06:04PM 48.4411 -115.0561 94° East 501 577 35,000  Climbing Seattle Center
06:05PM 48.4303 -114.8458 94° East 502 578 35,000  Level Seattle Center
06:06PM 48.4217 -114.6786 95° East 500 575 35,000  Level Salt Lake Center
06:07PM 48.4094 -114.4686 95° East 501 577 35,000  Level Salt Lake Center
06:08PM 48.3981 -114.2586 95° East 500 575 35,000  Level Salt Lake Center
06:09PM 48.3833 -114.0067 95° East 500 575 35,000 -60 Level Salt Lake Center
06:10PM 48.3706 -113.7983 95° East 499 574 34,900  Descending Salt Lake Center
06:11PM 48.3572 -113.5911 96° East 498 573 35,000  Climbing Salt Lake Center
06:12PM 48.3436 -113.3822 96° East 501 577 34,900 -60 Descending Salt Lake Center
06:13PM 48.3294 -113.1728 96° East 503 579 34,900  Level Salt Lake Center
06:14PM 48.3153 -112.9650 96° East 501 577 34,900  Level Salt Lake Center
06:15PM 48.3011 -112.7575 97° East 501 577 35,000  Climbing Salt Lake Center
06:16PM 48.2842 -112.5403 96° East 500 575 35,000 -60 Level Salt Lake Center
06:17PM 48.2692 -112.3331 97° East 500 575 34,900 -60 Descending Salt Lake Center
06:18PM 48.2528 -112.1253 96° East 501 577 34,900  Level Salt Lake Center
06:19PM 48.2372 -111.9161 97° East 503 579 35,000  Climbing Salt Lake Center
06:20PM 48.2206 -111.7072 97° East 503 579 34,900  Descending Salt Lake Center
06:21PM 48.2036 -111.4981 97° East 504 580 35,000  Climbing Salt Lake Center
06:22PM 48.1825 -111.2481 97° East 503 579 35,000  Level Salt Lake Center
06:23PM 48.1650 -111.0411 97° East 500 575 35,000  Level Salt Lake Center
06:25PM 48.1478 -110.8347 98° East 499 574 35,000  Level Salt Lake Center
06:26PM 48.1294 -110.6286 98° East 498 573 35,000 -60 Level Salt Lake Center
06:27PM 48.1106 -110.4233 98° East 498 573 34,900 -60 Descending Salt Lake Center
06:28PM 48.0914 -110.2175 98° East 498 573 34,900  Level Salt Lake Center
06:29PM 48.0725 -110.0117 98° East 499 574 35,000  Climbing Salt Lake Center
06:30PM 48.0525 -109.8058 98° East 500 575 34,900 -60 Descending Salt Lake Center
06:31PM 48.0325 -109.6008 99° East 500 575 34,900  Level Salt Lake Center
06:32PM 48.0117 -109.3953 98° East 500 575 35,000  Climbing Salt Lake Center
06:33PM 47.9872 -109.1472 99° East 502 578 35,000 -60 Level Salt Lake Center
06:34PM 47.9650 -108.9425 99° East 502 578 34,900 -60 Descending Salt Lake Center
06:35PM 47.9433 -108.7378 99° East 502 578 34,900  Level Salt Lake Center
06:36PM 47.9214 -108.5342 99° East 500 575 34,900  Level Salt Lake Center
06:37PM 47.8986 -108.3317 99° East 498 573 35,000  Climbing Salt Lake Center
06:38PM 47.8758 -108.1283 100° East 498 573 35,000  Level Salt Lake Center
06:39PM 47.8522 -107.9231 100° East 502 578 35,000  Level Salt Lake Center
06:40PM 47.8289 -107.7217 100° East 498 573 35,000 -60 Level Salt Lake Center
06:41PM 47.8047 -107.5181 100° East 499 574 34,900  Descending Salt Lake Center
06:42PM 47.7792 -107.3033 100° East 502 578 35,000  Climbing Salt Lake Center
06:43PM 47.7542 -107.0997 100° East 503 579 35,000  Level Salt Lake Center
06:44PM 47.7247 -106.8561 101° East 502 578 35,000  Level Salt Lake Center
06:45PM 47.6986 -106.6528 101° East 503 579 35,000  Level Salt Lake Center
06:46PM 47.6731 -106.4508 101° East 502 578 35,000  Level Salt Lake Center
06:47PM 47.6461 -106.2472 101° East 504 580 35,000  Level Salt Lake Center
06:48PM 47.6194 -106.0425 101° East 506 582 35,000  Level Salt Lake Center
06:49PM 47.5917 -105.8378 101° East 508 585 35,000  Level Salt Lake Center
06:50PM 47.5644 -105.6336 101° East 508 585 35,000  Level Salt Lake Center
06:51PM 47.5369 -105.4325 102° East 504 580 35,000  Level Salt Lake Center
06:52PM 47.5089 -105.2317 102° East 503 579 35,000  Level Salt Lake Center
06:53PM 47.4753 -104.9892 102° East 503 579 35,000  Level Salt Lake Center
06:54PM 47.4472 -104.7886 103° East 502 578 35,000  Level Salt Lake Center
06:55PM 47.4167 -104.5861 103° East 505 581 35,000  Level Salt Lake Center
06:56PM 47.3858 -104.3836 103° East 507 583 35,000  Level Salt Lake Center
06:57PM 47.3547 -104.1825 103° East 508 585 35,000  Level Salt Lake Center
06:58PM 47.3233 -103.9806 103° East 510 587 35,000  Level Salt Lake Center
06:59PM 47.2919 -103.7794 103° East 511 588 35,000  Level Salt Lake Center
07:00PM 47.2547 -103.5347 103° East 514 592 35,000  Level Salt Lake Center
07:01PM 47.2217 -103.3306 103° East 516 594 35,000  Level Salt Lake Center
07:02PM 47.1900 -103.1272 102° East 516 594 35,000  Level Salt Lake Center
07:03PM 47.1589 -102.9214 104° East 517 595 35,000  Level Salt Lake Center
07:04PM 47.1247 -102.7172 104° East 518 596 35,000  Level Salt Lake Center
07:05PM 47.0906 -102.5142 104° East 517 595 35,000  Level Salt Lake Center
07:06PM 47.0569 -102.3119 104° East 515 593 35,000  Level Salt Lake Center
07:07PM 47.0219 -102.1078 104° East 516 594 35,000  Level Salt Lake Center
07:09PM 46.9786 -101.8539 103° East 510 587 35,000  Level Minneapolis Center
07:10PM 46.9467 -101.6597 105° East 510 587 35,000  Level Minneapolis Center
07:11PM 46.9089 -101.4558 104° East 509 586 35,000  Level Minneapolis Center
07:12PM 46.8728 -101.2525 104° East 515 593 35,000  Level Minneapolis Center
07:13PM 46.8386 -101.0469 106° East 515 593 35,000  Level Minneapolis Center
07:14PM 46.7978 -100.8436 104° East 515 593 35,000  Level Minneapolis Center
07:15PM 46.7628 -100.6383 106° East 515 593 35,000  Level Minneapolis Center
07:16PM 46.7233 -100.4358 104° East 515 593 35,000  Level Minneapolis Center
07:17PM 46.6875 -100.2308 105° East 515 593 35,000  Level Minneapolis Center
07:18PM 46.6494 -100.0292 106° East 515 593 35,000  Level Minneapolis Center
07:19PM 46.6108 -99.8278 106° East 510 587 35,000  Level Minneapolis Center
07:20PM 46.5717 -99.6294 106° East 510 587 35,000  Level Minneapolis Center
07:21PM 46.5325 -99.4256 106° East 510 587 35,000  Level Minneapolis Center
07:22PM 46.4925 -99.2281 107° East 510 587 35,000  Level Minneapolis Center
07:23PM 46.4506 -99.0244 106° East 510 587 35,000  Level Minneapolis Center
07:24PM 46.4083 -98.8181 107° East 515 593 35,000  Level Minneapolis Center
07:25PM 46.3672 -98.6214 107° East 515 593 35,000 240 Level Minneapolis Center
07:26PM 46.3242 -98.4186 106° East 515 593 35,500 600 Climbing Minneapolis Center
07:27PM 46.2847 -98.2194 108° East 515 593 36,300 660 Climbing Minneapolis Center
07:28PM 46.2408 -98.0206 107° East 510 587 36,900 300 Climbing Minneapolis Center
07:29PM 46.1969 -97.8156 107° East 517 595 37,000  Climbing Minneapolis Center
07:30PM 46.1561 -97.6233 108° East 517 595 37,000  Level Minneapolis Center
07:31PM 46.1131 -97.4283 107° East 512 589 37,000  Level Minneapolis Center
07:32PM 46.0719 -97.2308 107° East 512 589 37,000  Level Minneapolis Center
07:33PM 46.0283 -97.0303 113° Southeast 507 583 37,000  Level Minneapolis Center
07:34PM 45.9697 -96.8353 115° Southeast 501 577 37,000  Level Minneapolis Center
07:35PM 45.9086 -96.6494 117° Southeast 501 577 37,000  Level Minneapolis Center
07:36PM 45.8467 -96.4731 116° Southeast 495 570 37,000  Level Minneapolis Center
07:37PM 45.7847 -96.2881 116° Southeast 502 578 37,000  Level Minneapolis Center
07:38PM 45.7225 -96.1064 113° Southeast 502 578 37,000  Level Minneapolis Center
07:39PM 45.6722 -95.9406 112° Southeast 496 571 37,000  Level Minneapolis Center
07:40PM 45.6197 -95.7542 113° Southeast 502 578 37,000  Level Minneapolis Center
07:41PM 45.5653 -95.5681 112° Southeast 508 585 37,000  Level Minneapolis Center
07:42PM 45.5103 -95.3764 113° Southeast 508 585 37,000  Level Minneapolis Center
07:43PM 45.4550 -95.1939 112° Southeast 508 585 37,000  Level Minneapolis Center
07:44PM 45.3975 -94.9911 113° Southeast 508 585 37,000  Level Minneapolis Center
07:45PM 45.3417 -94.8064 114° Southeast 508 585 37,000  Level Minneapolis Center
07:46PM 45.2892 -94.6428 113° Southeast 503 579 37,000  Level Minneapolis Center
07:47PM 45.2347 -94.4647 114° Southeast 498 573 37,000  Level Minneapolis Center
07:48PM 45.1781 -94.2811 113° Southeast 504 580 37,000  Level Minneapolis Center
07:49PM 45.1228 -94.1008 113° Southeast 504 580 37,000  Level Minneapolis Center
07:50PM 45.0636 -93.9033 114° Southeast 504 580 37,000  Level Minneapolis Center
07:51PM 45.0078 -93.7236 114° Southeast 504 580 37,000  Level Minneapolis Center
07:52PM 44.9519 -93.5444 113° Southeast 497 572 37,000  Level Minneapolis Center
07:53PM 44.8978 -93.3686 114° Southeast 502 578 37,000  Level Minneapolis Center
07:54PM 44.8414 -93.1931 113° Southeast 493 567 37,000  Level Minneapolis Center
07:55PM 44.7867 -93.0150 115° Southeast 519 597 37,000  Level Minneapolis Center
07:56PM 44.7275 -92.8400 114° Southeast 519 597 37,000  Level Minneapolis Center
07:57PM 44.6703 -92.6628 115° Southeast 502 578 37,000  Level Minneapolis Center
07:58PM 44.6125 -92.4883 115° Southeast 502 578 37,000  Level Minneapolis Center
07:59PM 44.5483 -92.2944 115° Southeast 502 578 37,000  Level Minneapolis Center
08:00PM 44.4903 -92.1211 115° Southeast 502 578 37,000  Level Minneapolis Center
08:01PM 44.4317 -91.9422 115° Southeast 502 578 37,000  Level Minneapolis Center
08:02PM 44.3708 -91.7636 116° Southeast 507 583 37,000  Level Minneapolis Center
08:03PM 44.3142 -91.6028 115° Southeast 486 559 37,000  Level Minneapolis Center
08:04PM 44.2528 -91.4222 115° Southeast 486 559 37,000  Level Minneapolis Center
08:05PM 44.1911 -91.2419 115° Southeast 499 574 37,000  Level Minneapolis Center
08:06PM 44.0839 -90.9272 116° Southeast 498 573 37,000  Level Chicago Center
08:07PM 44.0236 -90.7525 116° Southeast 498 573 37,000  Level Chicago Center
08:08PM 43.9611 -90.5722 117° Southeast 503 579 37,000  Level Chicago Center
08:09PM 43.8981 -90.3983 116° Southeast 509 586 37,000  Level Chicago Center
08:10PM 43.8411 -90.2361 117° Southeast 504 580 37,000  Level Chicago Center
08:11PM 43.7778 -90.0628 117° Southeast 509 586 37,000  Level Chicago Center
08:12PM 43.7142 -89.8897 116° Southeast 509 586 37,000  Level Chicago Center
08:13PM 43.6503 -89.7114 117° Southeast 509 586 37,000  Level Chicago Center
08:14PM 43.5861 -89.5361 117° Southeast 510 587 37,000  Level Chicago Center
08:15PM 43.5217 -89.3614 117° Southeast 510 587 37,000  Level Chicago Center
08:16PM 43.4569 -89.1869 117° Southeast 510 587 37,000  Level Chicago Center
08:17PM 43.3919 -89.0128 117° Southeast 510 587 37,000  Level Chicago Center
08:18PM 43.3267 -88.8389 119° Southeast 510 587 37,000  Level Chicago Center
08:19PM 43.2569 -88.6658 118° Southeast 515 593 37,000  Level Chicago Center
08:20PM 43.1892 -88.4900 115° Southeast 515 593 37,000  Level Chicago Center
08:21PM 43.1294 -88.3172 110° East 508 585 37,000  Level Chicago Center
08:22PM 43.0819 -88.1361 115° Southeast 503 579 37,000  Level Chicago Center
08:23PM 43.0214 -87.9614 112° Southeast 509 586 37,000  Level Chicago Center
08:24PM 42.9692 -87.7808 111° Southeast 509 586 37,000  Level Chicago Center
08:25PM 42.9186 -87.5978 99° East 515 593 37,000  Level Chicago Center
08:26PM 42.8947 -87.4031 96° East 510 587 37,000  Level Chicago Center
08:27PM 42.8808 -87.2136 98° East 504 580 37,000  Level Chicago Center
08:28PM 42.8603 -87.0047 97° East 509 586 37,000  Level Chicago Center
08:29PM 42.8436 -86.8125 97° East 509 586 37,000  Level Chicago Center
08:30PM 42.8244 -86.6153 98° East 509 586 37,000  Level Chicago Center
08:31PM 42.8053 -86.4236 97° East 509 586 37,000  Level Chicago Center
08:32PM 42.7875 -86.2292 99° East 514 592 37,000  Level Chicago Center
08:33PM 42.7656 -86.0381 97° East 519 597 37,000  Level Chicago Center
08:34PM 42.7472 -85.8436 97° East 519 597 37,000  Level Chicago Center
08:35PM 42.7289 -85.6525 99° East 519 597 37,000  Level Chicago Center
08:37PM 42.6844 -85.2556 98° East 504 580 37,000  Level Cleveland Center
08:38PM 42.6647 -85.0647 99° East 506 582 37,000  Level Cleveland Center
08:39PM 42.6428 -84.8769 99° East 506 582 37,000  Level Cleveland Center
08:40PM 42.6206 -84.6864 99° East 506 582 37,000  Level Cleveland Center
08:41PM 42.5994 -84.5156 98° East 506 582 37,000  Level Cleveland Center
08:42PM 42.5772 -84.3053 100° East 506 582 37,000  Level Cleveland Center
08:43PM 42.5519 -84.1122 98° East 506 582 37,000  Level Cleveland Center
08:44PM 42.5308 -83.9167 99° East 512 589 37,000  Level Cleveland Center
08:45PM 42.5069 -83.7239 99° East 517 595 37,000  Level Cleveland Center
08:46PM 42.4850 -83.5283 100° East 526 605 37,000  Level Cleveland Center
08:47PM 42.4606 -83.3331 100° East 526 605 37,000  Level Cleveland Center
08:48PM 42.4375 -83.1603 101° East 526 605 37,000  Level Cleveland Center
08:49PM 42.4106 -82.9653 100° East 521 600 37,000 -60 Level Cleveland Center
08:50PM 42.3872 -82.7786 96° East 516 594 36,900  Descending Cleveland Center
08:51PM 42.3719 -82.5814 93° East 516 594 37,000  Climbing Cleveland Center
08:52PM 42.3631 -82.3703 93° East 521 600 36,900 -60 Descending Cleveland Center
08:53PM 42.3553 -82.1764 94° East 516 594 36,900  Level Cleveland Center
08:54PM 42.3453 -81.9822 97° East 522 601 37,000  Climbing Cleveland Center
08:55PM 42.3267 -81.7881 97° East 522 601 37,000  Level Cleveland Center
08:56PM 42.3097 -81.5939 99° East 522 601 37,000  Level Cleveland Center
08:57PM 42.2864 -81.4028 98° East 522 601 37,000  Level Cleveland Center
08:58PM 42.2667 -81.2117 97° East 516 594 37,000  Level Cleveland Center
08:59PM 42.2508 -81.0433 98° East 516 594 37,000  Level Cleveland Center
09:00PM 42.2306 -80.8522 98° East 511 588 37,000  Level Cleveland Center
09:01PM 42.2100 -80.6617 98° East 511 588 37,000  Level Cleveland Center
09:02PM 42.1892 -80.4739 98° East 506 582 37,000  Level Cleveland Center
09:03PM 42.1681 -80.2833 99° East 506 582 37,000  Level Cleveland Center
09:04PM 42.1422 -80.0764 98° East 506 582 37,000  Level Cleveland Center
09:05PM 42.1225 -79.8917 100° East 500 575 37,000  Level Cleveland Center
09:06PM 42.0983 -79.7017 98° East 505 581 37,000  Level Cleveland Center
09:07PM 42.0781 -79.5144 99° East 505 581 37,000  Level Cleveland Center
09:08PM 42.0553 -79.3219 99° East 511 588 37,000  Level Cleveland Center
09:09PM 42.0322 -79.1322 100° East 511 588 37,000  Level Cleveland Center
09:10PM 42.0067 -78.9428 99° East 511 588 37,000  Level Cleveland Center
09:11PM 41.9831 -78.7536 99° East 511 588 37,000  Level Cleveland Center
09:12PM 41.9611 -78.5642 101° East 511 588 37,000  Level Cleveland Center
09:13PM 41.9347 -78.3753 100° East 511 588 37,000  Level Cleveland Center
09:14PM 41.9100 -78.1836 101° East 516 594 37,000 -480 Level Cleveland Center
09:16PM 41.8633 -77.8675 107° East 508 585 35,700 -720 Descending New York Center
09:17PM 41.8186 -77.6733 110° East 528 608 35,000 -360 Descending New York Center
09:18PM 41.7669 -77.4872 109° East 534 615 35,000  Level New York Center
09:19PM 41.7189 -77.3017 110° East 541 623 35,000  Level New York Center
09:21PM 41.6215 -76.9403 110° East 534 615 35,000  Level FlightAware ADS-B
09:22PM 41.5949 -76.8430 110° East 536 617 35,000  Level FlightAware ADS-B
09:22PM 41.5658 -76.7363 110° East 536 617 35,000  Level FlightAware ADS-B
09:23PM 41.5394 -76.6403 110° East 535 616 35,000  Level FlightAware ADS-B
09:23PM 41.5136 -76.5462 110° East 534 615 35,000  Level FlightAware ADS-B
09:24PM 41.4865 -76.4483 110° East 536 617 35,000 -600 Level FlightAware ADS-B
09:24PM 41.4608 -76.3557 110° East 534 615 34,400 -1,620 Descending FlightAware ADS-B
09:25PM 41.4348 -76.2626 111° Southeast 526 605 33,400 -1,980 Descending FlightAware ADS-B
09:25PM 41.4084 -76.1690 111° Southeast 518 596 32,400 -1,980 Descending FlightAware ADS-B
09:26PM 41.3832 -76.0795 111° Southeast 509 586 31,400 -1,920 Descending FlightAware ADS-B
09:26PM 41.3584 -75.9913 111° Southeast 501 577 30,500 -1,920 Descending FlightAware ADS-B
09:27PM 41.3338 -75.9041 111° Southeast 492 566 29,500 -1,920 Descending FlightAware ADS-B
09:27PM 41.3100 -75.8195 111° Southeast 484 557 28,600 -1,800 Descending FlightAware ADS-B
09:28PM 41.2862 -75.7362 112° Southeast 478 550 27,700 -1,920 Descending FlightAware ADS-B
09:28PM 41.2609 -75.6544 114° Southeast 471 542 26,700 -1,920 Descending FlightAware ADS-B
09:29PM 41.2339 -75.5722 114° Southeast 464 534 25,800 -1,800 Descending FlightAware ADS-B
09:29PM 41.2070 -75.4922 114° Southeast 460 529 24,900 -1,800 Descending FlightAware ADS-B
09:30PM 41.1814 -75.4156 114° Southeast 453 521 24,000 -1,680 Descending FlightAware ADS-B
09:30PM 41.1558 -75.3396 114° Southeast 448 516 23,200 -1,020 Descending FlightAware ADS-B
09:31PM 41.1300 -75.2628 114° Southeast 458 527 23,000 -420 Descending FlightAware ADS-B
09:31PM 41.1033 -75.1840 114° Southeast 461 531 22,800 -540 Descending FlightAware ADS-B
09:32PM 41.0769 -75.1066 114° Southeast 453 521 22,500 -600 Descending FlightAware ADS-B
09:32PM 41.0506 -75.0293 114° Southeast 455 524 22,200 -600 Descending FlightAware ADS-B
09:33PM 41.0249 -74.9540 114° Southeast 443 510 21,900 -600 Descending FlightAware ADS-B
09:33PM 41.0074 -74.9011 109° East 438 504 21,700 -600 Descending FlightAware ADS-B
09:33PM 41.0001 -74.8727 104° East 436 502 21,600 -480 Descending FlightAware ADS-B
09:34PM 40.9924 -74.8329 99° East 434 499 21,500 -540 Descending FlightAware ADS-B
09:34PM 40.9833 -74.7541 98° East 431 496 21,200 -600 Descending FlightAware ADS-B
09:35PM 40.9749 -74.6758 98° East 432 497 20,900 -600 Descending FlightAware ADS-B
09:35PM 40.9664 -74.5970 98° East 428 493 20,600 -600 Descending FlightAware ADS-B
09:36PM 40.9578 -74.5182 98° East 421 484 20,300 -540 Descending FlightAware ADS-B
09:36PM 40.9493 -74.4415 98° East 424 488 20,100 -540 Descending FlightAware ADS-B
09:37PM 40.9406 -74.3626 99° East 422 486 19,800 -600 Descending FlightAware ADS-B
09:37PM 40.9319 -74.2865 99° East 418 481 19,500 -540 Descending FlightAware ADS-B
09:38PM 40.9235 -74.2124 99° East 397 457 19,300 -540 Descending FlightAware ADS-B
09:38PM 40.9190 -74.1746 103° East 388 447 19,100 -600 Descending FlightAware ADS-B
09:38PM 40.9170 -74.1629 105° East 385 443 19,100 -720 Level FlightAware ADS-B
09:38PM 40.9149 -74.1528 109° East 383 441 19,000 -540 Descending FlightAware ADS-B
09:38PM 40.9106 -74.1365 114° Southeast 379 436 19,000  Level FlightAware ADS-B
09:38PM 40.9032 -74.1144 120° Southeast 373 429 19,000  Level FlightAware ADS-B
09:39PM 40.8926 -74.0901 122° Southeast 372 428 19,000 -840 Level FlightAware ADS-B
09:39PM 40.8650 -74.0328 123° Southeast 366 421 18,400 -1,260 Descending FlightAware ADS-B
09:39PM 40.8530 -74.0086 123° Southeast 364 419 18,100 -1,380 Descending FlightAware ADS-B
09:40PM 40.8367 -73.9756 123° Southeast 364 419 17,700 -1,560 Descending FlightAware ADS-B
09:40PM 40.8247 -73.9514 123° Southeast 363 418 17,300 -1,440 Descending FlightAware ADS-B
09:40PM 40.8090 -73.9199 123° Southeast 361 415 17,000 -1,200 Descending FlightAware ADS-B
09:40PM 40.7969 -73.8954 121° Southeast 359 413 16,700 -1,260 Descending FlightAware ADS-B
09:41PM 40.7874 -73.8748 118° Southeast 356 410 16,500 -1,020 Descending FlightAware ADS-B
09:41PM 40.7870 -73.8738 117° Southeast 356 410 16,500 -1,320 Level FlightAware ADS-B
09:41PM 40.7670 -73.8218 117° Southeast 352 405 15,900 -1,440 Descending FlightAware ADS-B
09:41PM 40.7644 -73.8151 117° Southeast 352 405 15,800 -1,620 Descending FlightAware ADS-B
09:42PM 40.7445 -73.7635 120° Southeast 352 405 15,100 -1,500 Descending FlightAware ADS-B
09:42PM 40.7436 -73.7614 122° Southeast 352 405 15,100 -780 Level FlightAware ADS-B
09:42PM 40.7384 -73.7505 128° Southeast 351 404 15,000 -1,140 Descending FlightAware ADS-B
09:42PM 40.7336 -73.7424 138° Southeast 348 400 14,900 -1,740 Descending FlightAware ADS-B
09:42PM 40.7218 -73.7285 151° Southeast 341 392 14,600 -2,400 Descending FlightAware ADS-B
09:42PM 40.7092 -73.7194 159° South 334 384 14,100 -3,240 Descending FlightAware ADS-B
09:42PM 40.7009 -73.7153 164° South 333 383 13,800 -3,360 Descending FlightAware ADS-B
09:42PM 40.6820 -73.7083 165° South 352 405 13,100 -3,000 Descending FlightAware ADS-B
09:43PM 40.6505 -73.6973 165° South 331 381 12,100 -2,700 Descending FlightAware ADS-B
09:43PM 40.6063 -73.6816 164° South 322 371 10,800 -2,340 Descending FlightAware ADS-B
09:44PM 40.5714 -73.6685 164° South 318 366 10,000 -1,980 Descending FlightAware ADS-B
09:44PM 40.5494 -73.6600 164° South 316 364 9,500 -1,920 Descending FlightAware ADS-B
09:44PM 40.5275 -73.6516 164° South 307 353 9,000 -1,560 Descending FlightAware ADS-B
09:44PM 40.5074 -73.6438 164° South 291 335 8,700 -1,440 Descending FlightAware ADS-B
09:45PM 40.4881 -73.6365 164° South 277 319 8,300 -1,740 Descending FlightAware ADS-B
09:45PM 40.4725 -73.6308 165° South 272 313 7,900 -1,980 Descending FlightAware ADS-B
09:45PM 40.4543 -73.6244 166° South 270 311 7,400 -2,040 Descending FlightAware ADS-B
09:45PM 40.4361 -73.6185 170° South 266 306 6,900 -1,920 Descending FlightAware ADS-B
09:45PM 40.4286 -73.6168 180° South 265 305 6,700 -1,740 Descending FlightAware ADS-B
09:46PM 40.4199 -73.6168 192° South 260 299 6,500 -1,860 Descending FlightAware ADS-B
09:46PM 40.4131 -73.6187 202° Southwest 256 295 6,300 -1,680 Descending FlightAware ADS-B
09:46PM 40.4079 -73.6214 210° Southwest 254 292 6,200 -2,040 Descending FlightAware ADS-B
09:46PM 40.4036 -73.6246 217° Southwest 252 290 6,000 -2,580 Descending FlightAware ADS-B
09:46PM 40.4008 -73.6274 222° Southwest 250 288 5,900 -2,040 Descending FlightAware ADS-B
09:46PM 40.3978 -73.6310 231° Southwest 250 288 5,800 -2,280 Descending FlightAware ADS-B
09:46PM 40.3945 -73.6363 239° Southwest 250 288 5,600 -2,280 Descending FlightAware ADS-B
09:46PM 40.3927 -73.6403 245° Southwest 249 287 5,500 -2,040 Descending FlightAware ADS-B
09:46PM 40.3909 -73.6453 252° West 250 288 5,400 -2,280 Descending FlightAware ADS-B
09:46PM 40.3892 -73.6523 263° West 249 287 5,200 -2,700 Descending FlightAware ADS-B
09:46PM 40.3886 -73.6584 268° West 249 287 5,000 -2,700 Descending FlightAware ADS-B
09:46PM 40.3884 -73.6661 273° West 251 289 4,800 -2,040 Descending FlightAware ADS-B
09:46PM 40.3888 -73.6757 275° West 253 291 4,600 -1,620 Descending FlightAware ADS-B
09:47PM 40.3905 -73.7001 276° West 257 296 4,200 -1,380 Descending FlightAware ADS-B
09:47PM 40.3925 -73.7237 279° West 257 296 3,900 -1,380 Descending FlightAware ADS-B
09:47PM 40.3948 -73.7424 299° West 256 295 3,600 -1,200 Descending FlightAware ADS-B
09:47PM 40.4025 -73.7610 311° West 250 288 3,400 -900 Descending FlightAware ADS-B
09:48PM 40.4072 -73.7681 314° West 247 284 3,300 -600 Descending FlightAware ADS-B
09:48PM 40.4198 -73.7854 314° West 239 275 3,200 -420 Descending FlightAware ADS-B
09:48PM 40.4317 -73.8015 314° West 229 264 3,100 -420 Descending FlightAware ADS-B
09:48PM 40.4431 -73.8168 315° West 219 252 3,000 -540 Descending FlightAware ADS-B
09:49PM 40.4571 -73.8350 346° North 211 243 2,800 -600 Descending FlightAware ADS-B
09:50PM 40.4925 -73.8467 10° North 204 235 2,300 -720 Descending New York Center
09:51PM 40.5500 -73.8333 37° Northeast 166 191 1,500 -660 Descending New York TRACON
09:52PM 40.5833 -73.8000 21° North 146 168 1,000 -660 Descending New York TRACON
09:53PM 40.6167 -73.7833 37° Northeast 146 168 200 -840 Descending New York TRACON
10:00PM 40.6333 -73.7667 37° Northeast  Level FlightAware Approximate